Maersk Barry — OYJE2 — position and weather

sailwx.info

Track history (hours):
 
Tides and Currents Weather Stations Pressure Air Temp Water Temp Dewpoint Dewpoint Depression Visibility Wind Speed Wind Dir Waves Ship Positions

Maersk Barry

Last reported at 2014-Aug-21 17:33 UTC. Time now 2014-Aug-21 18:05 UTC.
Position N 52°12' E 004°14'.

Length 175 m; draft 6.8 m.

Type: Tanker. MMSI: 219127000.

Date/timePositionNaut miles runAvg speedWind from/ knotsBaromVisibWave heightAir tempDewpointWater temp
2014-Aug-21 17:33N 52°12' E 004°14'0 0.0
2014-Aug-21 16:33N 52°12' E 004°14'0 0.0
2014-Aug-21 15:33N 52°12' E 004°14'0 0.0
2014-Aug-21 14:33N 52°12' E 004°14'0 0.0
2014-Aug-21 13:33N 52°12' E 004°14'0 0.0
2014-Aug-21 12:33N 52°12' E 004°14'0 0.0
2014-Aug-21 11:33N 52°12' E 004°14'0 0.0
2014-Aug-21 10:33N 52°12' E 004°14'0 0.0
2014-Aug-21 09:33N 52°12' E 004°14'0 0.1
2014-Aug-21 08:33N 52°12' E 004°14'0 0.1
2014-Aug-21 07:33N 52°12' E 004°14'0 0.1
2014-Aug-21 06:33N 52°12' E 004°14'0 0.0
2014-Aug-21 05:33N 52°12' E 004°14'0 0.1
2014-Aug-21 04:33N 52°12' E 004°14'0 0.0
2014-Aug-21 03:33N 52°12' E 004°14'0 0.1
2014-Aug-21 02:33N 52°12' E 004°14'0 0.0
2014-Aug-21 01:33N 52°12' E 004°14'0 0.0
2014-Aug-21 00:33N 52°12' E 004°14'0 0.0
2014-Aug-20 23:33N 52°12' E 004°14'0 0.0
2014-Aug-20 22:33N 52°12' E 004°14'0 0.0
2014-Aug-20 21:33N 52°12' E 004°14'0 0.2
2014-Aug-20 20:33N 52°12' E 004°14'0 0.1
2014-Aug-20 19:33N 52°12' E 004°14'0 0.0
2014-Aug-20 18:33N 52°12' E 004°14'0 0.0
2014-Aug-20 17:33N 52°12' E 004°14'0 0.0
2014-Aug-20 16:33N 52°12' E 004°14'0 0.1
2014-Aug-20 15:33N 52°12' E 004°14'0 0.0
2014-Aug-20 14:33N 52°12' E 004°14'0 0.1
2014-Aug-20 13:33N 52°12' E 004°14'0 0.0
2014-Aug-20 12:33N 52°12' E 004°14'0 0.1
2014-Aug-20 11:33N 52°12' E 004°14'0 0.0
2014-Aug-20 10:33N 52°12' E 004°14'0 0.0
2014-Aug-20 09:33N 52°12' E 004°14'0 0.1
2014-Aug-20 08:33N 52°12' E 004°14'0 0.1
2014-Aug-20 07:33N 52°12' E 004°14'0 0.1
2014-Aug-20 06:33N 52°12' E 004°14'0 0.0
2014-Aug-20 05:33N 52°12' E 004°14'0 0.0
2014-Aug-20 04:33N 52°12' E 004°14'0 0.0
2014-Aug-20 03:33N 52°12' E 004°14'0 0.0
2014-Aug-20 02:33N 52°12' E 004°14'0 0.0
2014-Aug-20 01:33N 52°12' E 004°14'0 0.0
2014-Aug-20 00:33N 52°12' E 004°14'0 0.0
2014-Aug-19 23:33N 52°12' E 004°14'0 0.0
2014-Aug-19 22:33N 52°12' E 004°14'0 0.0
2014-Aug-19 21:33N 52°12' E 004°14'0 0.0
2014-Aug-19 20:33N 52°12' E 004°14'0 0.0
2014-Aug-19 19:33N 52°12' E 004°14'0 0.0
2014-Aug-19 18:33N 52°12' E 004°14'0 0.0
2014-Aug-19 17:33N 52°12' E 004°14'0 0.0
2014-Aug-19 16:33N 52°12' E 004°14'0 0.0
2014-Aug-19 15:33N 52°12' E 004°14'0 0.0
2014-Aug-19 14:33N 52°12' E 004°14'0 0.0
2014-Aug-19 13:33N 52°12' E 004°14'0 0.0
2014-Aug-19 12:33N 52°12' E 004°14'0 0.1
2014-Aug-19 11:33N 52°12' E 004°14'0 0.0
2014-Aug-19 10:33N 52°12' E 004°14'0 0.0
2014-Aug-19 09:33N 52°12' E 004°14'0 0.0
2014-Aug-19 08:33N 52°12' E 004°14'0 0.0
2014-Aug-19 07:33N 52°12' E 004°14'0 0.0
2014-Aug-19 06:33N 52°12' E 004°14'0 0.1
2014-Aug-19 05:33N 52°12' E 004°14'0 0.2
2014-Aug-19 04:33N 52°12' E 004°14'0 0.0
2014-Aug-19 03:33N 52°12' E 004°14'0 0.0
2014-Aug-19 02:33N 52°12' E 004°14'0 0.1
2014-Aug-19 01:33N 52°12' E 004°14'0 0.1
2014-Aug-19 00:33N 52°12' E 004°14'0 0.0
2014-Aug-18 23:33N 52°12' E 004°14'0 0.0
2014-Aug-18 22:33N 52°12' E 004°14'0 0.0
2014-Aug-18 21:33N 52°12' E 004°14'0 0.0
2014-Aug-18 20:33N 52°12' E 004°14'2 1.9
2014-Aug-18 19:33N 52°10' E 004°13'4 3.6
2014-Aug-18 18:33N 52°08' E 004°08'1 1.4
2014-Aug-18 17:33N 52°08' E 004°10'5 5.5
2014-Aug-18 16:33N 52°10' E 004°03'1010.0
2014-Aug-18 15:33N 52°11' E 003°46'6 5.8
2014-Aug-18 14:31N 52°11' E 003°37'0 0.1
2014-Aug-18 13:25N 52°10' E 003°37'0 0.0
2014-Aug-18 00:16N 52°11' E 003°37'0 0.0
2014-Aug-17 12:07N 52°11' E 003°37'0 0.0
2014-Aug-17 05:16N 52°11' E 003°37'0 0.0
2014-Aug-16 21:28N 52°11' E 003°37'0 0.0
2014-Aug-16 12:10N 52°11' E 003°36'0 0.0
2014-Aug-16 02:22N 52°11' E 003°36'0 0.0
2014-Aug-15 18:10N 52°11' E 003°37'0 0.0
2014-Aug-15 15:10N 52°11' E 003°36'0 0.0
2014-Aug-15 12:10N 52°11' E 003°36'0 0.0
2014-Aug-15 11:28N 52°11' E 003°36'0 0.0
2014-Aug-15 10:31N 52°11' E 003°36'0 0.0
2014-Aug-15 02:28N 52°11' E 003°36'0 0.0
2014-Aug-14 22:04N 52°11' E 003°36'0 0.0
2014-Aug-14 10:22N 52°11' E 003°36'0 0.0
2014-Aug-14 00:22N 52°11' E 003°36'0 0.0
2014-Aug-13 22:28N 52°11' E 003°36'0 0.0
2014-Aug-12 18:25N 52°11' E 003°36'0 0.0
2014-Aug-12 17:19N 52°11' E 003°36'0 0.0
2014-Aug-12 16:04N 52°11' E 003°36'0 0.0
2014-Aug-12 15:31N 52°11' E 003°36'0 0.0
2014-Aug-12 14:28N 52°11' E 003°37'0 0.0
2014-Aug-12 13:31N 52°11' E 003°37'0 0.0
2014-Aug-12 00:10N 52°11' E 003°37'  
Track history (hours):
 
Tides and Currents Weather Stations Pressure Air Temp Water Temp Dewpoint Dewpoint Depression Visibility Wind Speed Wind Dir Waves Ship Positions

Maersk Barry

Last reported at 2014-Aug-21 17:33 UTC. Time now 2014-Aug-21 18:05 UTC.
Position N 52°12' E 004°14'.

Length 175 m; draft 6.8 m.

Type: Tanker. MMSI: 219127000.

Date/timePositionNaut miles runAvg speedWind from/ knotsBaromVisibWave heightAir tempDewpointWater temp
2014-Aug-21 17:33N 52°12' E 004°14'0 0.0
2014-Aug-21 16:33N 52°12' E 004°14'0 0.0
2014-Aug-21 15:33N 52°12' E 004°14'0 0.0
2014-Aug-21 14:33N 52°12' E 004°14'0 0.0
2014-Aug-21 13:33N 52°12' E 004°14'0 0.0
2014-Aug-21 12:33N 52°12' E 004°14'0 0.0
2014-Aug-21 11:33N 52°12' E 004°14'0 0.0
2014-Aug-21 10:33N 52°12' E 004°14'0 0.0
2014-Aug-21 09:33N 52°12' E 004°14'0 0.1
2014-Aug-21 08:33N 52°12' E 004°14'0 0.1
2014-Aug-21 07:33N 52°12' E 004°14'0 0.1
2014-Aug-21 06:33N 52°12' E 004°14'0 0.0
2014-Aug-21 05:33N 52°12' E 004°14'0 0.1
2014-Aug-21 04:33N 52°12' E 004°14'0 0.0
2014-Aug-21 03:33N 52°12' E 004°14'0 0.1
2014-Aug-21 02:33N 52°12' E 004°14'0 0.0
2014-Aug-21 01:33N 52°12' E 004°14'0 0.0
2014-Aug-21 00:33N 52°12' E 004°14'0 0.0
2014-Aug-20 23:33N 52°12' E 004°14'0 0.0
2014-Aug-20 22:33N 52°12' E 004°14'0 0.0
2014-Aug-20 21:33N 52°12' E 004°14'0 0.2
2014-Aug-20 20:33N 52°12' E 004°14'0 0.1
2014-Aug-20 19:33N 52°12' E 004°14'0 0.0
2014-Aug-20 18:33N 52°12' E 004°14'0 0.0
2014-Aug-20 17:33N 52°12' E 004°14'0 0.0
2014-Aug-20 16:33N 52°12' E 004°14'0 0.1
2014-Aug-20 15:33N 52°12' E 004°14'0 0.0
2014-Aug-20 14:33N 52°12' E 004°14'0 0.1
2014-Aug-20 13:33N 52°12' E 004°14'0 0.0
2014-Aug-20 12:33N 52°12' E 004°14'0 0.1
2014-Aug-20 11:33N 52°12' E 004°14'0 0.0
2014-Aug-20 10:33N 52°12' E 004°14'0 0.0
2014-Aug-20 09:33N 52°12' E 004°14'0 0.1
2014-Aug-20 08:33N 52°12' E 004°14'0 0.1
2014-Aug-20 07:33N 52°12' E 004°14'0 0.1
2014-Aug-20 06:33N 52°12' E 004°14'0 0.0
2014-Aug-20 05:33N 52°12' E 004°14'0 0.0
2014-Aug-20 04:33N 52°12' E 004°14'0 0.0
2014-Aug-20 03:33N 52°12' E 004°14'0 0.0
2014-Aug-20 02:33N 52°12' E 004°14'0 0.0
2014-Aug-20 01:33N 52°12' E 004°14'0 0.0
2014-Aug-20 00:33N 52°12' E 004°14'0 0.0
2014-Aug-19 23:33N 52°12' E 004°14'0 0.0
2014-Aug-19 22:33N 52°12' E 004°14'0 0.0
2014-Aug-19 21:33N 52°12' E 004°14'0 0.0
2014-Aug-19 20:33N 52°12' E 004°14'0 0.0
2014-Aug-19 19:33N 52°12' E 004°14'0 0.0
2014-Aug-19 18:33N 52°12' E 004°14'0 0.0
2014-Aug-19 17:33N 52°12' E 004°14'0 0.0
2014-Aug-19 16:33N 52°12' E 004°14'0 0.0
2014-Aug-19 15:33N 52°12' E 004°14'0 0.0
2014-Aug-19 14:33N 52°12' E 004°14'0 0.0
2014-Aug-19 13:33N 52°12' E 004°14'0 0.0
2014-Aug-19 12:33N 52°12' E 004°14'0 0.1
2014-Aug-19 11:33N 52°12' E 004°14'0 0.0
2014-Aug-19 10:33N 52°12' E 004°14'0 0.0
2014-Aug-19 09:33N 52°12' E 004°14'0 0.0
2014-Aug-19 08:33N 52°12' E 004°14'0 0.0
2014-Aug-19 07:33N 52°12' E 004°14'0 0.0
2014-Aug-19 06:33N 52°12' E 004°14'0 0.1
2014-Aug-19 05:33N 52°12' E 004°14'0 0.2
2014-Aug-19 04:33N 52°12' E 004°14'0 0.0
2014-Aug-19 03:33N 52°12' E 004°14'0 0.0
2014-Aug-19 02:33N 52°12' E 004°14'0 0.1
2014-Aug-19 01:33N 52°12' E 004°14'0 0.1
2014-Aug-19 00:33N 52°12' E 004°14'0 0.0
2014-Aug-18 23:33N 52°12' E 004°14'0 0.0
2014-Aug-18 22:33N 52°12' E 004°14'0 0.0
2014-Aug-18 21:33N 52°12' E 004°14'0 0.0
2014-Aug-18 20:33N 52°12' E 004°14'2 1.9
2014-Aug-18 19:33N 52°10' E 004°13'4 3.6
2014-Aug-18 18:33N 52°08' E 004°08'1 1.4
2014-Aug-18 17:33N 52°08' E 004°10'5 5.5
2014-Aug-18 16:33N 52°10' E 004°03'1010.0
2014-Aug-18 15:33N 52°11' E 003°46'6 5.8
2014-Aug-18 14:31N 52°11' E 003°37'0 0.1
2014-Aug-18 13:25N 52°10' E 003°37'0 0.0
2014-Aug-18 00:16N 52°11' E 003°37'0 0.0
2014-Aug-17 12:07N 52°11' E 003°37'0 0.0
2014-Aug-17 05:16N 52°11' E 003°37'0 0.0
2014-Aug-16 21:28N 52°11' E 003°37'0 0.0
2014-Aug-16 12:10N 52°11' E 003°36'0 0.0
2014-Aug-16 02:22N 52°11' E 003°36'0 0.0
2014-Aug-15 18:10N 52°11' E 003°37'0 0.0
2014-Aug-15 15:10N 52°11' E 003°36'0 0.0
2014-Aug-15 12:10N 52°11' E 003°36'0 0.0
2014-Aug-15 11:28N 52°11' E 003°36'0 0.0
2014-Aug-15 10:31N 52°11' E 003°36'0 0.0
2014-Aug-15 02:28N 52°11' E 003°36'0 0.0
2014-Aug-14 22:04N 52°11' E 003°36'0 0.0
2014-Aug-14 10:22N 52°11' E 003°36'0 0.0
2014-Aug-14 00:22N 52°11' E 003°36'0 0.0
2014-Aug-13 22:28N 52°11' E 003°36'0 0.0
2014-Aug-12 18:25N 52°11' E 003°36'0 0.0
2014-Aug-12 17:19N 52°11' E 003°36'0 0.0
2014-Aug-12 16:04N 52°11' E 003°36'0 0.0
2014-Aug-12 15:31N 52°11' E 003°36'0 0.0
2014-Aug-12 14:28N 52°11' E 003°37'0 0.0
2014-Aug-12 13:31N 52°11' E 003°37'0 0.0
2014-Aug-12 00:10N 52°11' E 003°37'  

Dump ship's entire track history